DLH3E EDDH-EDDM
Flight info
| Callsign | DLH3E |
|---|---|
| Flight time | 1h 2m |
| Altitude | 35000 |
| Route | AMLUH2G/33 AMLUH M852 DENIX DCT ZUCKA DCT SODRO/N0442F310 T703 LULAR/N0442F300 T105 LANDU LANDU2A |
| Aircraft | A321/M-SDE3FGHIRWY/LB1 |
Departure
| Time | 2026-05-04 14:55 |
|---|---|
| Airport | Hamburg Helmut Schmidt Airport (EDDH) |
Arrival
| Time | 2026-05-04 15:57 |
|---|---|
| Airport | Munich Airport (EDDM) |
| Time | Latitude | Longitude | Altitude | Speed | Heading |
|---|---|---|---|---|---|
| 2026-05-04 14:30 | 53.63292 | 10.00349 | 49 ft | 0 kts | 87° |
| 2026-05-04 14:49 | 53.63291 | 10.00332 | 48 ft | 4 kts | 87° |
| 2026-05-04 14:49 | 53.63290 | 10.00287 | 48 ft | 4 kts | 87° |
| 2026-05-04 14:49 | 53.63289 | 10.00242 | 48 ft | 4 kts | 87° |
| 2026-05-04 14:50 | 53.63287 | 10.00206 | 47 ft | 4 kts | 95° |
| 2026-05-04 14:50 | 53.63294 | 10.00173 | 45 ft | 4 kts | 158° |
| 2026-05-04 14:50 | 53.63318 | 10.00167 | 47 ft | 4 kts | 176° |
| 2026-05-04 14:50 | 53.63323 | 10.00166 | 46 ft | 0 kts | 176° |
| 2026-05-04 14:52 | 53.63307 | 10.00168 | 42 ft | 6 kts | 176° |
| 2026-05-04 14:52 | 53.63277 | 10.00172 | 48 ft | 7 kts | 176° |
| 2026-05-04 14:53 | 53.63223 | 10.00178 | 48 ft | 9 kts | 176° |
| 2026-05-04 14:53 | 53.63158 | 10.00186 | 47 ft | 10 kts | 176° |
| 2026-05-04 14:53 | 53.63083 | 10.00191 | 47 ft | 11 kts | 191° |
| 2026-05-04 14:53 | 53.63011 | 10.00122 | 48 ft | 13 kts | 212° |
| 2026-05-04 14:54 | 53.62918 | 9.99988 | 48 ft | 14 kts | 240° |
| 2026-05-04 14:54 | 53.62886 | 9.99881 | 46 ft | 16 kts | 244° |
| 2026-05-04 14:54 | 53.62875 | 9.99741 | 45 ft | 6 kts | 325° |
| 2026-05-04 14:54 | 53.62966 | 9.99660 | 45 ft | 41 kts | 332° |
| 2026-05-04 14:55 | 53.63442 | 9.99247 | 47 ft | 113 kts | 333° |
| 2026-05-04 14:55 | 53.64321 | 9.98484 | 100 ft | 164 kts | 332° |
| 2026-05-04 14:55 | 53.65305 | 9.97631 | 886 ft | 158 kts | 332° |
| 2026-05-04 14:55 | 53.66307 | 9.96775 | 1554 ft | 169 kts | 331° |
| 2026-05-04 14:56 | 53.67417 | 9.95821 | 1898 ft | 190 kts | 331° |
| 2026-05-04 14:56 | 53.68677 | 9.94831 | 2248 ft | 209 kts | 341° |
| 2026-05-04 14:56 | 53.70205 | 9.94767 | 2630 ft | 234 kts | 12° |
| 2026-05-04 14:56 | 53.71647 | 9.96325 | 2982 ft | 264 kts | 50° |
| 2026-05-04 14:57 | 53.72318 | 9.99197 | 3602 ft | 275 kts | 87° |
| 2026-05-04 14:57 | 53.71907 | 10.02330 | 4359 ft | 278 kts | 122° |
| 2026-05-04 14:57 | 53.70603 | 10.04732 | 4935 ft | 279 kts | 149° |
| 2026-05-04 14:57 | 53.68938 | 10.06392 | 5752 ft | 278 kts | 153° |
| 2026-05-04 14:58 | 53.67264 | 10.08047 | 6576 ft | 280 kts | 152° |
| 2026-05-04 14:58 | 53.65580 | 10.09731 | 7341 ft | 283 kts | 152° |
| 2026-05-04 14:58 | 53.63881 | 10.11435 | 8101 ft | 285 kts | 153° |
| 2026-05-04 14:58 | 53.62166 | 10.13151 | 8854 ft | 288 kts | 153° |
| 2026-05-04 14:59 | 53.60430 | 10.14883 | 9622 ft | 291 kts | 153° |
| 2026-05-04 14:59 | 53.58668 | 10.16637 | 10217 ft | 301 kts | 153° |
| 2026-05-04 14:59 | 53.54785 | 10.20477 | 10555 ft | 347 kts | 153° |
| 2026-05-04 15:00 | 53.52669 | 10.22569 | 10949 ft | 358 kts | 152° |
| 2026-05-04 15:00 | 53.50509 | 10.24714 | 11560 ft | 363 kts | 152° |
| 2026-05-04 15:00 | 53.48323 | 10.26883 | 12184 ft | 367 kts | 153° |
| 2026-05-04 15:01 | 53.43863 | 10.31246 | 13475 ft | 374 kts | 156° |
| 2026-05-04 15:01 | 53.41462 | 10.32900 | 14050 ft | 374 kts | 167° |
| 2026-05-04 15:01 | 53.38948 | 10.34051 | 14614 ft | 376 kts | 169° |
| 2026-05-04 15:01 | 53.36413 | 10.35185 | 15202 ft | 378 kts | 169° |
| 2026-05-04 15:02 | 53.33866 | 10.36320 | 15781 ft | 380 kts | 169° |
| 2026-05-04 15:02 | 53.31303 | 10.37462 | 16363 ft | 382 kts | 169° |
| 2026-05-04 15:02 | 53.28728 | 10.38611 | 16949 ft | 385 kts | 169° |
| 2026-05-04 15:02 | 53.26136 | 10.39768 | 17515 ft | 387 kts | 169° |
| 2026-05-04 15:03 | 53.23562 | 10.40916 | 18049 ft | 389 kts | 169° |
| 2026-05-04 15:03 | 53.20902 | 10.42103 | 18533 ft | 392 kts | 169° |
| 2026-05-04 15:03 | 53.18296 | 10.43265 | 18993 ft | 394 kts | 170° |
| 2026-05-04 15:03 | 53.15641 | 10.44451 | 19457 ft | 396 kts | 170° |
| 2026-05-04 15:04 | 53.12973 | 10.45635 | 19908 ft | 398 kts | 171° |
| 2026-05-04 15:04 | 53.10273 | 10.46687 | 20361 ft | 399 kts | 173° |
| 2026-05-04 15:04 | 53.07548 | 10.47587 | 20813 ft | 400 kts | 174° |
| 2026-05-04 15:04 | 53.04799 | 10.48400 | 21263 ft | 402 kts | 175° |
| 2026-05-04 15:05 | 53.02035 | 10.49184 | 21714 ft | 404 kts | 175° |
| 2026-05-04 15:05 | 52.99255 | 10.49977 | 22160 ft | 407 kts | 175° |
| 2026-05-04 15:05 | 52.96459 | 10.50800 | 22605 ft | 409 kts | 175° |
| 2026-05-04 15:05 | 52.93649 | 10.51654 | 23032 ft | 412 kts | 175° |
| 2026-05-04 15:06 | 52.90826 | 10.52526 | 23475 ft | 414 kts | 175° |
| 2026-05-04 15:06 | 52.87984 | 10.53408 | 23834 ft | 416 kts | 175° |
| 2026-05-04 15:06 | 52.85130 | 10.54294 | 24200 ft | 418 kts | 175° |
| 2026-05-04 15:07 | 52.79383 | 10.56078 | 24927 ft | 422 kts | 175° |
| 2026-05-04 15:07 | 52.76491 | 10.56971 | 25301 ft | 424 kts | 175° |
| 2026-05-04 15:07 | 52.73587 | 10.57864 | 25644 ft | 425 kts | 175° |
| 2026-05-04 15:07 | 52.70673 | 10.58756 | 26006 ft | 427 kts | 175° |
| 2026-05-04 15:08 | 52.67747 | 10.59647 | 26354 ft | 429 kts | 175° |
| 2026-05-04 15:08 | 52.64804 | 10.60545 | 26706 ft | 431 kts | 175° |
| 2026-05-04 15:08 | 52.61852 | 10.61448 | 27055 ft | 432 kts | 175° |
| 2026-05-04 15:08 | 52.58885 | 10.62354 | 27398 ft | 434 kts | 175° |
| 2026-05-04 15:09 | 52.55908 | 10.63258 | 27732 ft | 436 kts | 175° |
| 2026-05-04 15:09 | 52.52916 | 10.64163 | 28061 ft | 438 kts | 175° |
| 2026-05-04 15:09 | 52.49913 | 10.65069 | 28372 ft | 440 kts | 175° |
| 2026-05-04 15:10 | 52.43875 | 10.66894 | 28954 ft | 443 kts | 175° |
| 2026-05-04 15:10 | 52.40837 | 10.67821 | 29225 ft | 444 kts | 175° |
| 2026-05-04 15:10 | 52.34762 | 10.69669 | 29941 ft | 443 kts | 175° |
| 2026-05-04 15:11 | 52.31735 | 10.70583 | 30290 ft | 442 kts | 175° |
| 2026-05-04 15:11 | 52.28718 | 10.71491 | 30604 ft | 441 kts | 175° |
| 2026-05-04 15:11 | 52.25700 | 10.72394 | 30898 ft | 441 kts | 175° |
| 2026-05-04 15:11 | 52.22685 | 10.73295 | 31196 ft | 440 kts | 175° |
| 2026-05-04 15:12 | 52.19675 | 10.74198 | 31488 ft | 440 kts | 175° |
| 2026-05-04 15:12 | 52.16661 | 10.75101 | 31778 ft | 440 kts | 175° |
| 2026-05-04 15:12 | 52.13651 | 10.76001 | 32070 ft | 440 kts | 175° |
| 2026-05-04 15:12 | 52.10638 | 10.76900 | 32344 ft | 440 kts | 175° |
| 2026-05-04 15:13 | 52.07668 | 10.77786 | 32619 ft | 440 kts | 175° |
| 2026-05-04 15:13 | 52.04656 | 10.78681 | 32900 ft | 440 kts | 175° |
| 2026-05-04 15:13 | 52.01645 | 10.79570 | 33174 ft | 440 kts | 175° |
| 2026-05-04 15:13 | 51.98632 | 10.80458 | 33462 ft | 440 kts | 175° |
| 2026-05-04 15:14 | 51.95620 | 10.81350 | 33746 ft | 440 kts | 175° |
| 2026-05-04 15:14 | 51.92610 | 10.82241 | 34013 ft | 440 kts | 175° |
| 2026-05-04 15:14 | 51.89597 | 10.83132 | 34246 ft | 440 kts | 175° |
| 2026-05-04 15:14 | 51.86586 | 10.84024 | 34484 ft | 440 kts | 175° |
| 2026-05-04 15:15 | 51.83578 | 10.84914 | 34730 ft | 439 kts | 175° |
| 2026-05-04 15:15 | 51.80573 | 10.85800 | 34917 ft | 439 kts | 175° |
| 2026-05-04 15:15 | 51.77567 | 10.86679 | 34975 ft | 438 kts | 175° |
| 2026-05-04 15:16 | 51.68591 | 10.89392 | 34983 ft | 440 kts | 170° |
| 2026-05-04 15:16 | 51.62882 | 10.93199 | 34980 ft | 448 kts | 159° |
| 2026-05-04 15:17 | 51.60091 | 10.95422 | 34982 ft | 448 kts | 159° |
| 2026-05-04 15:17 | 51.51717 | 11.02037 | 34981 ft | 447 kts | 159° |
| 2026-05-04 15:18 | 51.46124 | 11.06411 | 34991 ft | 447 kts | 159° |
| 2026-05-04 15:19 | 51.37733 | 11.12979 | 34994 ft | 447 kts | 159° |
| 2026-05-04 15:19 | 51.29343 | 11.19528 | 34993 ft | 447 kts | 159° |
| 2026-05-04 15:20 | 51.23748 | 11.23879 | 34996 ft | 447 kts | 159° |
| 2026-05-04 15:20 | 51.18149 | 11.28213 | 34994 ft | 447 kts | 159° |
| 2026-05-04 15:21 | 51.12546 | 11.32534 | 34993 ft | 447 kts | 159° |
| 2026-05-04 15:22 | 51.04142 | 11.39011 | 34987 ft | 447 kts | 159° |
| 2026-05-04 15:22 | 50.95736 | 11.45459 | 34985 ft | 447 kts | 159° |
| 2026-05-04 15:23 | 50.90124 | 11.49748 | 34985 ft | 448 kts | 159° |
| 2026-05-04 15:23 | 50.84510 | 11.54026 | 34986 ft | 448 kts | 159° |
| 2026-05-04 15:24 | 50.73269 | 11.62551 | 34989 ft | 448 kts | 159° |
| 2026-05-04 15:25 | 50.67648 | 11.66799 | 34993 ft | 448 kts | 159° |
| 2026-05-04 15:26 | 50.59219 | 11.73163 | 34989 ft | 446 kts | 159° |
| 2026-05-04 15:26 | 50.56479 | 11.75229 | 34804 ft | 440 kts | 159° |
| 2026-05-04 15:26 | 50.50980 | 11.79362 | 33625 ft | 438 kts | 159° |
| 2026-05-04 15:27 | 50.48227 | 11.81419 | 32911 ft | 439 kts | 159° |
| 2026-05-04 15:27 | 50.42653 | 11.85455 | 31359 ft | 445 kts | 160° |
| 2026-05-04 15:28 | 50.36910 | 11.89295 | 30966 ft | 451 kts | 161° |
| 2026-05-04 15:28 | 50.34014 | 11.91206 | 31008 ft | 452 kts | 161° |
| 2026-05-04 15:29 | 50.25324 | 11.97000 | 31010 ft | 453 kts | 161° |
| 2026-05-04 15:30 | 50.13960 | 12.04653 | 30993 ft | 441 kts | 161° |
| 2026-05-04 15:30 | 50.05499 | 12.10320 | 30984 ft | 441 kts | 161° |
| 2026-05-04 15:31 | 49.97066 | 12.15935 | 30980 ft | 442 kts | 161° |
| 2026-05-04 15:32 | 49.88579 | 12.21558 | 30530 ft | 444 kts | 160° |
| 2026-05-04 15:32 | 49.82934 | 12.25297 | 29279 ft | 437 kts | 160° |
| 2026-05-04 15:33 | 49.77403 | 12.28945 | 28091 ft | 428 kts | 160° |
| 2026-05-04 15:34 | 49.69586 | 12.35473 | 26949 ft | 441 kts | 146° |
| 2026-05-04 15:34 | 49.67120 | 12.38368 | 26977 ft | 448 kts | 146° |
| 2026-05-04 15:34 | 49.62142 | 12.44168 | 26967 ft | 448 kts | 146° |
| 2026-05-04 15:35 | 49.57157 | 12.49961 | 26960 ft | 449 kts | 146° |
| 2026-05-04 15:35 | 49.54661 | 12.52853 | 26892 ft | 449 kts | 146° |
| 2026-05-04 15:35 | 49.52150 | 12.55756 | 25796 ft | 456 kts | 146° |
| 2026-05-04 15:36 | 49.47048 | 12.61651 | 24111 ft | 456 kts | 146° |
| 2026-05-04 15:36 | 49.44528 | 12.64571 | 23405 ft | 452 kts | 145° |
| 2026-05-04 15:36 | 49.42171 | 12.67732 | 22694 ft | 447 kts | 139° |
| 2026-05-04 15:37 | 49.39760 | 12.70566 | 22348 ft | 427 kts | 156° |
| 2026-05-04 15:37 | 49.37010 | 12.71961 | 21997 ft | 411 kts | 173° |
| 2026-05-04 15:37 | 49.34187 | 12.72230 | 21661 ft | 404 kts | 185° |
| 2026-05-04 15:37 | 49.31426 | 12.71668 | 21331 ft | 399 kts | 195° |
| 2026-05-04 15:38 | 49.28851 | 12.70333 | 21011 ft | 395 kts | 205° |
| 2026-05-04 15:38 | 49.26354 | 12.68605 | 20685 ft | 393 kts | 206° |
| 2026-05-04 15:38 | 49.23874 | 12.66868 | 20362 ft | 391 kts | 206° |
| 2026-05-04 15:38 | 49.21410 | 12.65129 | 20032 ft | 389 kts | 206° |
| 2026-05-04 15:39 | 49.18963 | 12.63383 | 19754 ft | 387 kts | 206° |
| 2026-05-04 15:39 | 49.16527 | 12.61629 | 19454 ft | 386 kts | 206° |
| 2026-05-04 15:39 | 49.11714 | 12.58168 | 18618 ft | 378 kts | 206° |
| 2026-05-04 15:40 | 49.09343 | 12.56471 | 18008 ft | 375 kts | 206° |
| 2026-05-04 15:40 | 49.07038 | 12.54667 | 17389 ft | 370 kts | 214° |
| 2026-05-04 15:40 | 49.05124 | 12.52091 | 16774 ft | 366 kts | 226° |
| 2026-05-04 15:40 | 49.03390 | 12.49272 | 16147 ft | 363 kts | 226° |
| 2026-05-04 15:41 | 49.01677 | 12.46471 | 15559 ft | 359 kts | 226° |
| 2026-05-04 15:41 | 48.99984 | 12.43695 | 14950 ft | 356 kts | 226° |
| 2026-05-04 15:41 | 48.98306 | 12.40945 | 14359 ft | 353 kts | 226° |
| 2026-05-04 15:41 | 48.96642 | 12.38227 | 13771 ft | 350 kts | 225° |
| 2026-05-04 15:42 | 48.94988 | 12.35532 | 13118 ft | 347 kts | 225° |
| 2026-05-04 15:42 | 48.93900 | 12.33760 | 12679 ft | 345 kts | 225° |
| 2026-05-04 15:42 | 48.92268 | 12.31107 | 12080 ft | 342 kts | 225° |
| 2026-05-04 15:42 | 48.90648 | 12.28478 | 11470 ft | 339 kts | 226° |
| 2026-05-04 15:43 | 48.89039 | 12.25871 | 10850 ft | 337 kts | 226° |
| 2026-05-04 15:43 | 48.87444 | 12.23288 | 10291 ft | 334 kts | 226° |
| 2026-05-04 15:43 | 48.85851 | 12.20709 | 9993 ft | 344 kts | 226° |
| 2026-05-04 15:43 | 48.84162 | 12.17979 | 9920 ft | 361 kts | 226° |
| 2026-05-04 15:44 | 48.82430 | 12.15180 | 9935 ft | 366 kts | 226° |
| 2026-05-04 15:44 | 48.80684 | 12.12364 | 9940 ft | 367 kts | 226° |
| 2026-05-04 15:44 | 48.78938 | 12.09548 | 9939 ft | 367 kts | 226° |
| 2026-05-04 15:44 | 48.77190 | 12.06733 | 9943 ft | 367 kts | 226° |
| 2026-05-04 15:45 | 48.75442 | 12.03920 | 9943 ft | 367 kts | 226° |
| 2026-05-04 15:45 | 48.73692 | 12.01104 | 9945 ft | 367 kts | 226° |
| 2026-05-04 15:45 | 48.71940 | 11.98290 | 9945 ft | 367 kts | 226° |
| 2026-05-04 15:45 | 48.70183 | 11.95474 | 9946 ft | 367 kts | 226° |
| 2026-05-04 15:46 | 48.68452 | 11.92704 | 9944 ft | 367 kts | 226° |
| 2026-05-04 15:46 | 48.66694 | 11.89895 | 9946 ft | 367 kts | 226° |
| 2026-05-04 15:46 | 48.64939 | 11.87090 | 9950 ft | 367 kts | 226° |
| 2026-05-04 15:46 | 48.63185 | 11.84289 | 9836 ft | 364 kts | 226° |
| 2026-05-04 15:47 | 48.61460 | 11.81544 | 9358 ft | 353 kts | 226° |
| 2026-05-04 15:47 | 48.59818 | 11.78929 | 9222 ft | 333 kts | 226° |
| 2026-05-04 15:47 | 48.58266 | 11.76453 | 9090 ft | 316 kts | 226° |
| 2026-05-04 15:47 | 48.56791 | 11.74105 | 8971 ft | 301 kts | 226° |
| 2026-05-04 15:48 | 48.55383 | 11.71869 | 8824 ft | 287 kts | 226° |
| 2026-05-04 15:48 | 48.54035 | 11.69729 | 8657 ft | 277 kts | 226° |
| 2026-05-04 15:48 | 48.51400 | 11.65557 | 7915 ft | 274 kts | 226° |
| 2026-05-04 15:49 | 48.50088 | 11.63485 | 7518 ft | 273 kts | 226° |
| 2026-05-04 15:49 | 48.48776 | 11.61408 | 7137 ft | 273 kts | 226° |
| 2026-05-04 15:49 | 48.47475 | 11.59351 | 6552 ft | 269 kts | 226° |
| 2026-05-04 15:49 | 48.46172 | 11.57293 | 5960 ft | 273 kts | 226° |
| 2026-05-04 15:50 | 48.44889 | 11.55201 | 5591 ft | 271 kts | 230° |
| 2026-05-04 15:50 | 48.43826 | 11.52866 | 5318 ft | 267 kts | 240° |
| 2026-05-04 15:50 | 48.43063 | 11.50383 | 5190 ft | 257 kts | 250° |
| 2026-05-04 15:50 | 48.42588 | 11.47845 | 5065 ft | 247 kts | 259° |
| 2026-05-04 15:51 | 48.42358 | 11.45335 | 4935 ft | 237 kts | 263° |
| 2026-05-04 15:51 | 48.42168 | 11.42934 | 4693 ft | 232 kts | 263° |
| 2026-05-04 15:51 | 48.41728 | 11.40631 | 4376 ft | 229 kts | 237° |
| 2026-05-04 15:51 | 48.40573 | 11.39048 | 4078 ft | 226 kts | 202° |
| 2026-05-04 15:52 | 48.39045 | 11.38667 | 4013 ft | 227 kts | 178° |
| 2026-05-04 15:52 | 48.37537 | 11.39329 | 4014 ft | 229 kts | 145° |
| 2026-05-04 15:52 | 48.36485 | 11.41101 | 4015 ft | 230 kts | 119° |
| 2026-05-04 15:52 | 48.35754 | 11.43246 | 4015 ft | 231 kts | 115° |
| 2026-05-04 15:53 | 48.35073 | 11.45436 | 4011 ft | 231 kts | 114° |
| 2026-05-04 15:53 | 48.34409 | 11.47637 | 4012 ft | 231 kts | 111° |
| 2026-05-04 15:53 | 48.34166 | 11.49997 | 4010 ft | 230 kts | 85° |
| 2026-05-04 15:53 | 48.34349 | 11.52394 | 4011 ft | 231 kts | 82° |
| 2026-05-04 15:54 | 48.34549 | 11.54791 | 4007 ft | 231 kts | 83° |
| 2026-05-04 15:54 | 48.34740 | 11.57164 | 3959 ft | 223 kts | 83° |
| 2026-05-04 15:54 | 48.34917 | 11.59409 | 3723 ft | 210 kts | 83° |
| 2026-05-04 15:54 | 48.35085 | 11.61538 | 3455 ft | 201 kts | 83° |
| 2026-05-04 15:55 | 48.35244 | 11.63554 | 3214 ft | 185 kts | 83° |
| 2026-05-04 15:55 | 48.35388 | 11.65393 | 2975 ft | 170 kts | 83° |
| 2026-05-04 15:55 | 48.35523 | 11.67110 | 2758 ft | 162 kts | 83° |
| 2026-05-04 15:55 | 48.35652 | 11.68753 | 2551 ft | 160 kts | 83° |
| 2026-05-04 15:56 | 48.35781 | 11.70402 | 2347 ft | 158 kts | 82° |
| 2026-05-04 15:56 | 48.35906 | 11.72012 | 2135 ft | 152 kts | 82° |
| 2026-05-04 15:56 | 48.36028 | 11.73572 | 1935 ft | 149 kts | 82° |
| 2026-05-04 15:56 | 48.36148 | 11.75110 | 1742 ft | 147 kts | 81° |
| 2026-05-04 15:57 | 48.36270 | 11.76639 | 1541 ft | 147 kts | 81° |
| 2026-05-04 15:57 | 48.36383 | 11.78083 | 1480 ft | 121 kts | 83° |
| 2026-05-04 15:57 | 48.36410 | 11.78726 | 1485 ft | 34 kts | 111° |
| 2026-05-04 15:57 | 48.36328 | 11.79007 | 1482 ft | 27 kts | 113° |
| 2026-05-04 15:58 | 48.36260 | 11.79237 | 1477 ft | 21 kts | 124° |
| 2026-05-04 15:58 | 48.36127 | 11.79310 | 1474 ft | 21 kts | 174° |
| 2026-05-04 15:58 | 48.36001 | 11.79331 | 1477 ft | 6 kts | 173° |
| 2026-05-04 15:58 | 48.35983 | 11.79335 | 1486 ft | 2 kts | 173° |
| 2026-05-04 15:59 | 48.35975 | 11.79336 | 1486 ft | 2 kts | 173° |
| 2026-05-04 15:59 | 48.35973 | 11.79337 | 1479 ft | 0 kts | 173° |
| 2026-05-04 15:59 | 48.35945 | 11.79342 | 1485 ft | 9 kts | 171° |
| 2026-05-04 15:59 | 48.35884 | 11.79436 | 1479 ft | 15 kts | 137° |
| 2026-05-04 16:00 | 48.35780 | 11.79466 | 1473 ft | 16 kts | 173° |
| 2026-05-04 16:00 | 48.35662 | 11.79486 | 1477 ft | 18 kts | 173° |
| 2026-05-04 16:00 | 48.35550 | 11.79479 | 1480 ft | 14 kts | 218° |
| 2026-05-04 16:00 | 48.35530 | 11.79355 | 1477 ft | 10 kts | 263° |
| 2026-05-04 16:01 | 48.35526 | 11.79302 | 1485 ft | 2 kts | 263° |
| 2026-05-04 16:01 | 48.35525 | 11.79297 | 1485 ft | 0 kts | 263° |